• Join FlightAware (Why Join?)
  • Login
  • US Flag GB Flag 
17:51 EDT


 

Airport Tracker/Info


-or-


 

Live Flight TrackerFlight Track Log ✈ DAL6067 ✈ 11-Apr-2013 ✈ KDTW - KCMH

Flight Track Log - Related Links

Times and Time Zones

All times are in EDT time to prevent confusion due to time zone crossing. See the DAL6067 flight status page for this flight to view local times or setup timezone preferences in your user account.

Time Position Orientation Groundspeed Altitude Reporting Facility
EDT Latitude Longitude Course Direction KTS MPH feet Rate Location/Type
13:52 42.2250 -83.3394 352° North 150 173 1,200  Level Cleveland Center
13:53 42.2850 -83.3506 352° North 234 269 3,500 2,040 Climbing Cleveland Center
13:54 42.3556 -83.3706 348° North 279 321 5,600 2,400 Climbing Cleveland Center
13:55 42.3806 -83.4589 291° West 248 285 8,500 2,160 Climbing Cleveland Center
13:56 42.3678 -83.5481 259° West 254 292 10,000 1,200 Climbing Cleveland Center
13:56 42.3611 -83.5619 237° Southwest 263 303 10,100 780 Climbing Cleveland Center
13:57 42.3458 -83.6708 259° West 306 352 11,000 1,140 Climbing Cleveland Center
13:58 42.2775 -83.7319 213° Southwest 277 319 12,400 1,560 Climbing Cleveland Center
13:59 42.1750 -83.6597 152° Southeast 289 333 14,200 1,800 Climbing Cleveland Center
14:00 42.0892 -83.6022 154° Southeast 319 367 16,100 1,440 Climbing Cleveland Center
14:01 41.9967 -83.5478 156° South 350 403 17,100 480 Climbing Cleveland Center
14:02 41.9042 -83.4958 157° South 367 422 17,100  Level Cleveland Center
14:03 41.8089 -83.4750 171° South 359 413 17,100  Level Cleveland Center
14:04 41.7153 -83.4594 173° South 351 404 17,100 -60 Level Cleveland Center
14:05 41.6239 -83.4444 173° South 341 392 17,000 -60 Descending Cleveland Center
14:06 41.5347 -83.4292 173° South 336 387 17,000  Level Cleveland Center
14:07 41.4456 -83.4144 173° South 331 381 17,000  Level Cleveland Center
14:08 41.3458 -83.3961 172° South 342 394 17,000  Level Cleveland Center
14:09 41.2400 -83.3806 174° South 363 418 17,000  Level Cleveland Center
14:10 41.1361 -83.3622 172° South 376 433 17,000 -180 Level Cleveland Center
14:11 41.0489 -83.3447 171° South 376 433 16,700 -900 Descending Cleveland Center
14:12 40.9492 -83.3294 173° South 358 412 15,200 -1,500 Descending Cleveland Center
14:13 40.8578 -83.3147 173° South 340 391 13,700 -1,500 Descending Cleveland Center
14:14 40.7644 -83.2972 172° South 326 375 12,200 -1,560 Descending Cleveland Center
14:15 40.6814 -83.2828 172° South 316 364 10,600 -1,020 Descending Cleveland Center
14:16 40.5919 -83.2697 174° South 288 331 10,000 -300 Descending Indianapolis Center
14:17 40.5069 -83.2478 169° South 289 333 10,000 -60 Level Indianapolis Center
14:18 40.4356 -83.2172 162° South 292 336 9,900 -1,020 Descending Indianapolis Center
14:19 40.3647 -83.1842 160° South 270 311 8,100 -1,800 Descending Indianapolis Center
14:20 40.2956 -83.1542 162° South 262 302 6,300 -1,080 Descending Indianapolis Center
14:21 40.2286 -83.1244 161° South 254 292 6,000 -360 Descending Indianapolis Center
14:22 40.1617 -83.0947 161° South 254 292 5,600 -900 Descending Indianapolis Center
14:23 40.0839 -83.0611 162° South 244 281 4,000 -960 Descending Indianapolis Center
14:24 40.0356 -83.0419 163° South 214 246 3,700 -960 Descending Indianapolis Center
14:25 40.0069 -82.9978 130° Southeast 174 200 2,300 -1,200 Descending Indianapolis Center
14:26 40.0081 -82.9861 83° East 192 221 2,200 -840 Descending Indianapolis Center
14:26 40.0044 -82.9458 97° East 137 158 1,500 -1,020 Descending Indianapolis Center
14:27 40.0042 -82.9350 92° East 158 182 1,200 -1,140 Descending Indianapolis Center